Time;durP1;ratioP1;P1;durP2;ratioP2;P2;SDS_P1;SDS_P2;PMS_P1;PMS_P2;Temp;Humidity;BMP_temperature;BMP_pressure;BME280_temperature;BME280_humidity;BME280_pressure;Samples;Min_cycle;Max_cycle;Signal;HPM_P1;HPM_P2
2021/08/22 00:00:47;;;;;;;3.10;2.80;;;21.10;90.70;;;;;;5055622;28;20461;-75
2021/08/22 00:03:13;;;;;;;2.57;2.37;;;21.20;90.60;;;;;;5055941;28;20445;-75
2021/08/22 00:05:40;;;;;;;2.93;2.63;;;21.30;90.40;;;;;;5055794;28;20477;-74
2021/08/22 00:08:07;;;;;;;2.27;2.07;;;21.40;90.20;;;;;;5055468;28;20948;-74
2021/08/22 00:10:34;;;;;;;3.17;2.67;;;21.40;90.00;;;;;;5055735;28;20456;-75
2021/08/22 00:13:00;;;;;;;2.53;2.33;;;21.40;89.10;;;;;;5055684;28;20445;-75
2021/08/22 00:15:27;;;;;;;3.03;2.30;;;21.40;89.00;;;;;;5055866;28;20445;-75
2021/08/22 00:17:55;;;;;;;2.30;2.10;;;21.40;89.00;;;;;;5055533;28;20441;-75
2021/08/22 00:20:22;;;;;;;2.40;2.03;;;21.50;88.70;;;;;;5055659;28;20478;-75
2021/08/22 00:22:49;;;;;;;3.10;2.80;;;21.50;88.30;;;;;;5055544;28;20499;-75
2021/08/22 00:25:16;;;;;;;2.57;2.37;;;21.50;88.20;;;;;;5055182;28;21009;-75
2021/08/22 00:27:43;;;;;;;2.90;2.70;;;21.50;88.00;;;;;;5055482;28;20442;-75
2021/08/22 00:30:11;;;;;;;2.93;2.20;;;21.50;87.80;;;;;;5055060;28;20465;-75
2021/08/22 00:32:38;;;;;;;2.53;2.33;;;21.60;87.60;;;;;;5055331;28;20445;-75
2021/08/22 00:35:07;;;;;;;9.63;2.20;;;21.50;87.10;;;;;;5055404;28;20802;-75
2021/08/22 00:37:33;;;;;;;4.00;2.90;;;21.40;87.00;;;;;;5055275;28;20450;-75
2021/08/22 00:40:00;;;;;;;3.80;2.50;;;21.40;87.30;;;;;;5054784;28;20815;-75
2021/08/22 00:42:32;;;;;;;4.93;2.80;;;21.40;87.20;;;;;;5054921;28;20453;-75
2021/08/22 00:44:59;;;;;;;4.10;3.60;;;21.40;87.20;;;;;;5054826;28;20497;-75
2021/08/22 00:47:27;;;;;;;4.20;2.70;;;21.40;87.50;;;;;;5054815;28;20452;-75
2021/08/22 00:49:53;;;;;;;3.10;2.70;;;21.40;87.60;;;;;;5054938;28;20466;-75
2021/08/22 00:52:21;;;;;;;3.13;2.23;;;21.30;87.30;;;;;;5054981;28;20454;-75
2021/08/22 00:54:48;;;;;;;3.70;2.60;;;21.40;87.30;;;;;;5054629;28;20837;-75
2021/08/22 00:57:15;;;;;;;4.43;2.60;;;21.40;87.20;;;;;;5054919;28;20492;-75
2021/08/22 00:59:42;;;;;;;2.70;2.33;;;21.30;86.90;;;;;;5054078;28;20493;-75
2021/08/22 01:02:14;;;;;;;4.60;2.40;;;21.30;87.00;;;;;;5054813;28;20808;-75
2021/08/22 01:04:50;;;;;;;5.10;2.43;;;21.30;86.70;;;;;;5055004;28;20465;-75
2021/08/22 01:07:22;;;;;;;3.87;2.40;;;21.30;87.10;;;;;;5054452;28;20429;-75
2021/08/22 01:09:51;;;;;;;2.60;2.40;;;21.30;87.30;;;;;;5054635;28;20469;-75
2021/08/22 01:12:26;;;;;;;3.77;2.50;;;21.30;87.40;;;;;;5054575;28;20445;-75
2021/08/22 01:14:55;;;;;;;8.97;3.00;;;21.30;87.30;;;;;;5054652;28;20425;-75
2021/08/22 01:17:24;;;;;;;2.20;2.00;;;21.20;87.10;;;;;;5054292;28;20446;-75
2021/08/22 01:19:58;;;;;;;4.20;2.80;;;21.20;86.90;;;;;;5054491;28;20470;-75
2021/08/22 01:22:28;;;;;;;3.73;2.77;;;21.10;86.90;;;;;;5054163;28;20433;-75
2021/08/22 01:24:57;;;;;;;4.87;2.70;;;21.10;87.30;;;;;;5054533;28;20473;-75
2021/08/22 01:27:25;;;;;;;4.97;2.60;;;21.10;87.30;;;;;;5054305;28;20543;-75
2021/08/22 01:29:59;;;;;;;3.80;2.50;;;21.10;87.30;;;;;;5054188;28;20472;-75
2021/08/22 01:32:35;;;;;;;2.87;2.67;;;21.00;87.60;;;;;;5053967;28;20780;-75
2021/08/22 01:35:02;;;;;;;3.37;3.07;;;21.00;88.00;;;;;;5054439;28;20425;-75
2021/08/22 01:37:30;;;;;;;3.90;2.90;;;20.90;88.00;;;;;;5054134;28;20441;-75
2021/08/22 01:39:56;;;;;;;6.73;3.60;;;20.90;88.30;;;;;;5053681;28;20466;-75
2021/08/22 01:42:24;;;;;;;5.73;3.60;;;20.90;88.80;;;;;;5054045;28;20453;-75
2021/08/22 01:44:52;;;;;;;5.77;4.03;;;20.70;89.00;;;;;;5053914;28;20473;-75
2021/08/22 01:47:19;;;;;;;4.67;4.27;;;20.60;90.20;;;;;;5053961;28;20453;-75
2021/08/22 01:49:47;;;;;;;6.60;6.10;;;20.50;90.80;;;;;;5053801;28;20469;-75
2021/08/22 01:52:15;;;;;;;7.10;6.40;;;20.40;91.30;;;;;;5053862;28;20446;-75
2021/08/22 01:54:42;;;;;;;6.80;6.20;;;20.30;91.70;;;;;;5053480;28;20939;-75
2021/08/22 01:57:09;;;;;;;8.27;7.43;;;20.30;92.30;;;;;;5053802;28;20449;-75
2021/08/22 01:59:36;;;;;;;8.60;7.80;;;20.20;92.70;;;;;;5053240;28;20983;-75
2021/08/22 02:02:04;;;;;;;9.60;8.70;;;20.20;93.00;;;;;;5053726;28;20499;-75
2021/08/22 02:04:40;;;;;;;11.10;10.00;;;20.10;93.30;;;;;;5053870;28;20570;-75
2021/08/22 02:07:13;;;;;;;9.47;8.60;;;20.10;93.50;;;;;;5053894;28;20422;-75
2021/08/22 02:09:46;;;;;;;10.50;8.87;;;20.20;93.80;;;;;;5053181;28;20998;-75
2021/08/22 02:12:17;;;;;;;10.00;9.00;;;20.10;93.70;;;;;;5052602;28;20957;-75
2021/08/22 02:14:50;;;;;;;10.27;9.47;;;20.10;93.90;;;;;;5053319;28;20430;-75
2021/08/22 02:17:18;;;;;;;10.43;9.53;;;20.00;94.10;;;;;;5053589;28;20434;-74
2021/08/22 02:19:45;;;;;;;10.80;9.53;;;20.00;94.20;;;;;;5053463;28;20470;-74
2021/08/22 02:22:14;;;;;;;11.30;10.20;;;20.00;94.40;;;;;;5053457;28;20446;-75
2021/08/22 02:24:41;;;;;;;12.23;11.13;;;20.10;94.60;;;;;;5053377;28;20484;-74
2021/08/22 02:27:08;;;;;;;12.50;11.20;;;20.00;94.50;;;;;;5053439;28;20475;-75
2021/08/22 02:29:46;;;;;;;12.30;11.10;;;19.90;94.70;;;;;;5053022;28;21060;-75
2021/08/22 02:32:13;;;;;;;11.97;10.77;;;19.90;95.00;;;;;;5053986;28;20441;-75
2021/08/22 02:34:39;;;;;;;12.27;11.00;;;19.90;95.10;;;;;;5052997;28;20438;-75
2021/08/22 02:37:06;;;;;;;13.63;11.23;;;19.90;95.40;;;;;;5053312;28;20446;-75
2021/08/22 02:39:35;;;;;;;12.57;10.57;;;19.90;95.50;;;;;;5053185;28;20468;-74
2021/08/22 02:42:02;;;;;;;14.00;12.10;;;20.00;95.40;;;;;;5053316;28;20549;-74
2021/08/22 02:44:29;;;;;;;13.60;11.87;;;20.00;95.40;;;;;;5053197;28;20813;-75
2021/08/22 02:46:55;;;;;;;12.70;11.40;;;20.00;95.20;;;;;;5053248;28;20499;-75
2021/08/22 02:49:22;;;;;;;12.90;11.80;;;20.00;95.20;;;;;;5053794;28;20466;-75
2021/08/22 02:51:49;;;;;;;12.90;11.63;;;20.00;95.60;;;;;;5053198;28;20452;-75
2021/08/22 02:54:15;;;;;;;13.77;12.37;;;20.00;95.10;;;;;;5053180;28;20468;-75
2021/08/22 02:56:43;;;;;;;12.53;11.40;;;20.10;95.30;;;;;;5053123;28;20441;-75
2021/08/22 02:59:10;;;;;;;24.07;12.43;;;20.10;95.40;;;;;;5052850;28;20481;-75
2021/08/22 03:01:38;;;;;;;12.10;11.10;;;20.10;94.90;;;;;;5053127;28;20430;-75
2021/08/22 03:04:05;;;;;;;15.40;11.07;;;20.10;94.90;;;;;;5053093;28;20446;-75
2021/08/22 03:06:32;;;;;;;12.27;11.27;;;20.00;94.80;;;;;;5052665;28;20481;-75
2021/08/22 03:09:00;;;;;;;11.87;10.77;;;20.00;94.80;;;;;;5052905;28;20465;-75
2021/08/22 03:11:26;;;;;;;12.70;10.97;;;20.00;94.80;;;;;;5052706;28;21007;-75
2021/08/22 03:13:54;;;;;;;13.30;12.00;;;20.00;95.00;;;;;;5052982;28;20448;-75
2021/08/22 03:16:21;;;;;;;11.93;10.83;;;20.00;95.00;;;;;;5052952;28;20448;-75
2021/08/22 03:18:48;;;;;;;13.07;11.97;;;20.00;95.00;;;;;;5052870;28;20467;-75
2021/08/22 03:21:14;;;;;;;12.87;11.47;;;20.00;95.00;;;;;;5052952;28;20442;-75
2021/08/22 03:23:41;;;;;;;14.43;11.63;;;20.00;95.10;;;;;;5054809;28;20441;-75
2021/08/22 03:26:08;;;;;;;13.20;11.90;;;20.00;95.10;;;;;;5056563;28;20845;-75
2021/08/22 03:28:36;;;;;;;13.13;11.87;;;19.90;95.10;;;;;;5056222;28;20469;-75
2021/08/22 03:31:04;;;;;;;13.87;12.57;;;20.00;95.40;;;;;;5056510;28;20856;-75
2021/08/22 03:33:31;;;;;;;13.67;12.40;;;20.00;95.30;;;;;;5056472;28;20451;-75
2021/08/22 03:35:58;;;;;;;12.73;11.53;;;19.90;95.20;;;;;;5056432;28;20901;-75
2021/08/22 03:38:24;;;;;;;12.93;11.70;;;20.00;95.20;;;;;;5056308;28;20461;-75
2021/08/22 03:40:51;;;;;;;14.33;12.90;;;19.90;95.20;;;;;;5056312;28;20445;-75
2021/08/22 03:43:18;;;;;;;14.33;13.03;;;19.90;95.20;;;;;;5056293;28;20504;-75
2021/08/22 03:45:45;;;;;;;14.30;12.77;;;19.90;95.10;;;;;;5056171;28;20477;-75
2021/08/22 03:48:13;;;;;;;14.63;13.23;;;19.90;95.00;;;;;;5056137;28;20449;-75
2021/08/22 03:50:39;;;;;;;14.87;13.27;;;19.80;95.00;;;;;;5056199;28;20445;-75
2021/08/22 03:53:06;;;;;;;14.97;13.33;;;19.90;95.20;;;;;;5056104;28;20449;-75
2021/08/22 03:55:33;;;;;;;14.60;13.10;;;19.90;95.00;;;;;;5056085;28;20441;-75
2021/08/22 03:57:59;;;;;;;14.50;13.20;;;19.90;95.20;;;;;;5055960;28;20452;-74
2021/08/22 04:00:26;;;;;;;15.00;13.50;;;19.80;94.80;;;;;;5055623;28;20469;-75
2021/08/22 04:02:53;;;;;;;15.67;13.17;;;19.90;94.80;;;;;;5055948;28;20453;-75
2021/08/22 04:05:21;;;;;;;16.17;14.47;;;19.80;94.60;;;;;;5056056;28;20484;-75
2021/08/22 04:07:49;;;;;;;15.17;13.60;;;19.80;94.50;;;;;;5055533;28;20795;-75
2021/08/22 04:10:16;;;;;;;17.93;16.03;;;19.80;94.60;;;;;;5055931;28;20812;-75
2021/08/22 04:12:43;;;;;;;19.30;16.07;;;19.80;94.70;;;;;;5058131;28;20954;-75
2021/08/22 04:15:11;;;;;;;19.23;16.00;;;19.80;94.80;;;;;;5058557;28;20445;-75
2021/08/22 04:17:38;;;;;;;16.13;14.47;;;19.80;94.80;;;;;;5058717;28;20868;-75
2021/08/22 04:20:06;;;;;;;16.60;14.90;;;19.80;94.60;;;;;;5055978;28;20998;-75
2021/08/22 04:22:36;;;;;;;17.67;15.63;;;19.80;94.70;;;;;;5055592;28;20452;-75
2021/08/22 04:25:03;;;;;;;18.37;16.37;;;19.80;94.90;;;;;;5055476;28;20462;-75
2021/08/22 04:27:30;;;;;;;18.40;16.50;;;19.70;94.90;;;;;;5055488;28;20448;-75
2021/08/22 04:29:56;;;;;;;21.97;16.50;;;19.70;94.80;;;;;;5055270;28;20454;-75
2021/08/22 04:32:23;;;;;;;20.53;18.27;;;19.70;94.90;;;;;;5055447;28;20517;-75
2021/08/22 04:34:50;;;;;;;21.40;18.10;;;19.60;94.60;;;;;;5054578;28;20438;-75
2021/08/22 04:37:18;;;;;;;26.07;18.00;;;19.70;94.80;;;;;;5055306;28;20448;-75
2021/08/22 04:39:46;;;;;;;20.00;17.77;;;19.60;94.70;;;;;;5055161;28;20461;-75
2021/08/22 04:42:13;;;;;;;19.87;17.73;;;19.70;94.70;;;;;;5055401;28;20445;-75
2021/08/22 04:44:39;;;;;;;20.47;17.60;;;19.70;94.60;;;;;;5055137;28;20445;-75
2021/08/22 04:47:06;;;;;;;23.00;18.67;;;19.70;94.30;;;;;;5054766;28;20531;-75
2021/08/22 04:49:33;;;;;;;21.80;18.03;;;19.70;94.40;;;;;;5055183;28;20465;-75
2021/08/22 04:52:00;;;;;;;20.47;17.37;;;19.70;94.30;;;;;;5054994;28;20446;-75
2021/08/22 04:54:27;;;;;;;21.70;18.10;;;19.80;94.40;;;;;;5054987;28;20471;-75
2021/08/22 04:56:55;;;;;;;20.20;17.67;;;19.70;94.20;;;;;;5054642;28;20932;-75
2021/08/22 04:59:22;;;;;;;23.33;20.10;;;19.80;94.30;;;;;;5054580;28;20477;-75
2021/08/22 05:01:49;;;;;;;21.77;18.20;;;19.80;94.30;;;;;;5055075;28;20445;-75
2021/08/22 05:04:15;;;;;;;20.60;18.50;;;19.70;94.10;;;;;;5054497;28;20954;-75
2021/08/22 05:06:42;;;;;;;22.40;18.70;;;19.70;94.10;;;;;;5055229;28;20878;-75
2021/08/22 05:09:08;;;;;;;20.37;18.30;;;19.60;94.10;;;;;;5054616;28;20465;-75
2021/08/22 05:11:35;;;;;;;22.60;20.30;;;19.60;94.30;;;;;;5054782;28;20452;-75
2021/08/22 05:14:04;;;;;;;22.00;18.50;;;19.60;94.30;;;;;;5054539;28;21013;-75
2021/08/22 05:16:30;;;;;;;20.13;18.00;;;19.70;94.10;;;;;;5054230;28;20444;-75
2021/08/22 05:18:57;;;;;;;21.03;18.93;;;19.70;94.20;;;;;;5054414;28;20535;-75
2021/08/22 05:21:24;;;;;;;19.80;18.00;;;19.70;94.10;;;;;;5054474;28;20448;-75
2021/08/22 05:23:50;;;;;;;21.57;19.27;;;19.80;94.00;;;;;;5054365;28;20446;-75
2021/08/22 05:26:17;;;;;;;21.60;19.37;;;19.80;93.80;;;;;;5054275;28;20487;-75
2021/08/22 05:28:44;;;;;;;20.90;18.80;;;19.70;93.70;;;;;;5053933;28;20984;-75
2021/08/22 05:31:12;;;;;;;19.67;17.50;;;19.80;93.80;;;;;;5054267;28;20433;-75
2021/08/22 05:33:38;;;;;;;20.80;18.27;;;19.80;93.80;;;;;;5054209;28;20916;-75
2021/08/22 05:36:16;;;;;;;19.73;17.70;;;19.70;93.60;;;;;;5054196;28;20446;-75
2021/08/22 05:38:43;;;;;;;20.87;18.87;;;19.70;93.70;;;;;;5053753;28;20503;-75
2021/08/22 05:41:10;;;;;;;21.30;19.10;;;19.70;93.80;;;;;;5054098;28;20456;-75
2021/08/22 05:43:37;;;;;;;21.43;18.33;;;19.70;93.80;;;;;;5054031;28;20445;-75
2021/08/22 05:46:03;;;;;;;19.33;17.33;;;19.80;94.00;;;;;;5053879;28;21040;-76
2021/08/22 05:48:32;;;;;;;20.17;18.07;;;19.80;93.90;;;;;;5053884;28;20866;-75
2021/08/22 05:50:59;;;;;;;19.30;17.13;;;19.80;93.70;;;;;;5053573;28;20794;-75
2021/08/22 05:53:28;;;;;;;18.70;16.80;;;19.80;93.80;;;;;;5053581;28;20944;-76
2021/08/22 05:55:55;;;;;;;19.97;17.63;;;19.80;93.80;;;;;;5053805;28;20450;-75
2021/08/22 05:58:21;;;;;;;21.40;18.50;;;19.80;93.90;;;;;;5053395;28;20468;-75
2021/08/22 06:00:48;;;;;;;20.20;18.10;;;19.80;93.60;;;;;;5053423;28;20461;-75
2021/08/22 06:03:15;;;;;;;21.87;17.00;;;19.80;93.40;;;;;;5053413;28;20452;-75
2021/08/22 06:05:43;;;;;;;19.83;17.63;;;19.80;93.20;;;;;;5053639;28;20484;-75
2021/08/22 06:08:10;;;;;;;23.70;18.03;;;19.90;93.40;;;;;;5053584;28;20449;-75
2021/08/22 06:10:36;;;;;;;19.93;17.53;;;19.90;93.40;;;;;;5053665;28;20510;-75
2021/08/22 06:13:03;;;;;;;20.23;17.30;;;19.80;93.10;;;;;;5053272;28;20441;-75
2021/08/22 06:15:30;;;;;;;19.47;16.93;;;19.90;93.30;;;;;;5053534;28;20449;-75
2021/08/22 06:17:56;;;;;;;18.60;16.70;;;19.90;93.30;;;;;;5053447;28;20454;-75
2021/08/22 06:20:23;;;;;;;19.33;16.60;;;20.00;93.30;;;;;;5053208;28;20935;-75
2021/08/22 06:22:51;;;;;;;27.63;17.13;;;20.10;93.10;;;;;;5053422;28;20446;-75
2021/08/22 06:25:18;;;;;;;17.20;14.63;;;20.20;92.60;;;;;;5053443;28;20446;-75
2021/08/22 06:27:45;;;;;;;17.27;15.47;;;20.30;92.90;;;;;;5053339;28;20553;-75
2021/08/22 06:30:12;;;;;;;17.90;15.30;;;20.40;92.10;;;;;;5053295;28;20465;-75
2021/08/22 06:32:39;;;;;;;18.00;15.43;;;20.40;92.30;;;;;;5053089;28;20848;-75
2021/08/22 06:35:06;;;;;;;17.00;15.30;;;20.50;92.10;;;;;;5053026;28;20971;-75
2021/08/22 06:37:33;;;;;;;16.80;14.47;;;20.50;91.90;;;;;;5053278;28;20442;-75
2021/08/22 06:40:02;;;;;;;16.27;14.57;;;20.60;91.90;;;;;;5053247;28;20496;-75
2021/08/22 06:42:31;;;;;;;17.47;14.40;;;20.60;91.80;;;;;;5053260;28;20445;-76
2021/08/22 06:44:57;;;;;;;18.23;13.90;;;20.70;91.80;;;;;;5053207;28;20540;-75
2021/08/22 06:47:24;;;;;;;16.63;14.47;;;20.70;91.30;;;;;;5053133;28;20481;-75
2021/08/22 06:49:51;;;;;;;17.03;15.27;;;20.70;91.40;;;;;;5053120;28;20468;-75
2021/08/22 06:52:18;;;;;;;20.30;14.70;;;20.70;91.20;;;;;;5053186;28;20473;-75
2021/08/22 06:54:45;;;;;;;15.73;14.00;;;20.70;91.50;;;;;;5053989;28;20457;-76
2021/08/22 06:57:14;;;;;;;17.13;15.43;;;20.60;91.00;;;;;;5053106;28;20441;-75
2021/08/22 06:59:40;;;;;;;15.40;13.90;;;20.60;91.40;;;;;;5056028;28;20488;-75
2021/08/22 07:02:07;;;;;;;15.90;14.20;;;20.60;91.60;;;;;;5057112;28;20499;-75
2021/08/22 07:04:34;;;;;;;18.00;14.20;;;20.60;91.50;;;;;;5057337;28;20456;-75
2021/08/22 07:07:01;;;;;;;15.03;13.53;;;20.50;91.70;;;;;;5056929;28;20481;-75
2021/08/22 07:09:27;;;;;;;14.47;13.07;;;20.60;91.90;;;;;;5056562;28;20461;-75
2021/08/22 07:11:54;;;;;;;17.07;13.70;;;20.70;91.80;;;;;;5056891;28;20441;-75
2021/08/22 07:14:22;;;;;;;15.70;13.63;;;20.80;91.40;;;;;;5056820;28;20452;-75
2021/08/22 07:16:49;;;;;;;15.47;14.07;;;20.70;91.40;;;;;;5056790;28;20441;-75
2021/08/22 07:19:16;;;;;;;15.53;13.90;;;20.70;91.50;;;;;;5056680;28;20475;-75
2021/08/22 07:21:44;;;;;;;15.27;13.63;;;20.80;91.70;;;;;;5056377;28;20955;-75
2021/08/22 07:24:10;;;;;;;15.23;13.63;;;20.80;91.40;;;;;;5056646;28;20445;-75
2021/08/22 07:26:37;;;;;;;15.00;13.43;;;20.80;91.00;;;;;;5056541;28;20858;-75
2021/08/22 07:29:04;;;;;;;15.83;13.37;;;20.80;91.20;;;;;;5056501;28;20469;-75
2021/08/22 07:31:32;;;;;;;14.90;13.37;;;20.80;91.20;;;;;;5056507;28;20524;-75
2021/08/22 07:33:59;;;;;;;15.20;13.60;;;20.90;91.30;;;;;;5056485;28;20464;-75
2021/08/22 07:36:26;;;;;;;15.53;13.60;;;21.10;91.20;;;;;;5056150;28;20437;-75
2021/08/22 07:38:52;;;;;;;12.77;11.57;;;21.10;90.70;;;;;;5056023;28;20469;-75
2021/08/22 07:41:19;;;;;;;14.50;13.00;;;21.30;91.00;;;;;;5056390;28;20457;-75
2021/08/22 07:43:46;;;;;;;12.90;11.70;;;21.30;90.30;;;;;;5056308;28;20453;-75
2021/08/22 07:46:13;;;;;;;12.80;11.50;;;21.50;90.60;;;;;;5056190;28;20477;-76
2021/08/22 07:48:41;;;;;;;11.50;10.40;;;21.60;90.60;;;;;;5056214;28;20472;-75
2021/08/22 07:51:07;;;;;;;10.70;9.60;;;21.90;90.10;;;;;;5056171;28;20441;-76
2021/08/22 07:53:35;;;;;;;13.97;11.40;;;22.10;88.00;;;;;;5055783;28;20935;-75
2021/08/22 07:56:04;;;;;;;10.50;9.50;;;22.20;86.70;;;;;;5056053;28;20483;-75
2021/08/22 07:58:31;;;;;;;11.70;10.70;;;22.30;86.00;;;;;;5055800;28;20474;-75
2021/08/22 08:00:57;;;;;;;12.73;11.33;;;22.30;85.90;;;;;;5055670;28;20457;-76
2021/08/22 08:03:24;;;;;;;12.83;11.63;;;22.10;86.70;;;;;;5055651;28;20939;-76
2021/08/22 08:05:54;;;;;;;12.67;11.33;;;22.00;86.60;;;;;;5055872;28;20449;-76
2021/08/22 08:08:21;;;;;;;16.47;11.70;;;22.00;87.90;;;;;;5055741;28;20509;-75
2021/08/22 08:10:47;;;;;;;12.93;10.13;;;22.10;88.00;;;;;;5054642;28;20498;-76
2021/08/22 08:13:14;;;;;;;10.53;9.43;;;22.20;87.10;;;;;;5055773;28;20449;-75
2021/08/22 08:15:41;;;;;;;11.07;10.07;;;22.30;86.90;;;;;;5055688;28;20441;-76
2021/08/22 08:18:08;;;;;;;10.33;9.33;;;22.30;86.40;;;;;;5055278;28;20438;-76
2021/08/22 08:20:34;;;;;;;10.00;9.00;;;22.40;85.60;;;;;;5055657;28;20445;-75
2021/08/22 08:23:03;;;;;;;9.53;8.43;;;22.40;85.60;;;;;;5055569;28;20448;-75
2021/08/22 08:25:30;;;;;;;12.60;9.20;;;22.40;84.30;;;;;;5055578;28;20452;-76
2021/08/22 08:27:57;;;;;;;9.57;8.67;;;22.30;84.20;;;;;;5055307;28;20489;-75
2021/08/22 08:30:24;;;;;;;8.90;8.20;;;22.40;84.80;;;;;;5055668;28;20449;-75
2021/08/22 08:32:51;;;;;;;8.07;7.40;;;22.40;84.60;;;;;;5055404;28;20456;-75
2021/08/22 08:35:17;;;;;;;8.60;6.60;;;22.60;85.80;;;;;;5055112;28;20971;-75
2021/08/22 08:37:44;;;;;;;6.67;6.07;;;22.90;85.70;;;;;;5055296;28;20445;-76
2021/08/22 08:40:13;;;;;;;7.10;6.40;;;23.00;80.70;;;;;;5055173;28;20468;-75
2021/08/22 08:42:41;;;;;;;8.37;5.37;;;23.00;80.70;;;;;;5055318;28;20445;-75
2021/08/22 08:45:12;;;;;;;6.40;5.80;;;23.10;81.00;;;;;;5054870;28;20966;-75
2021/08/22 08:47:39;;;;;;;6.13;5.53;;;23.20;79.60;;;;;;5054789;28;20470;-76
2021/08/22 08:50:09;;;;;;;5.60;4.93;;;23.30;78.80;;;;;;5054657;28;20824;-76
2021/08/22 08:52:42;;;;;;;4.90;4.27;;;23.30;76.00;;;;;;5054711;28;20430;-76
2021/08/22 08:55:13;;;;;;;4.57;4.00;;;23.30;73.20;;;;;;5055024;28;20426;-76
2021/08/22 08:57:40;;;;;;;4.10;3.70;;;23.30;74.50;;;;;;5054647;28;20784;-76
2021/08/22 09:00:10;;;;;;;4.20;3.43;;;23.30;72.70;;;;;;5054523;28;20484;-76
2021/08/22 09:02:37;;;;;;;6.13;4.20;;;23.30;73.10;;;;;;5054865;28;20450;-75
2021/08/22 09:05:12;;;;;;;8.17;4.20;;;23.30;74.40;;;;;;5055034;28;20443;-75
2021/08/22 09:08:15;;;;;;;6.63;4.60;;;23.30;74.10;;;;;;5054327;28;20484;-76
2021/08/22 09:11:18;;;;;;;6.23;4.90;;;23.20;73.90;;;;;;5054208;28;20495;-76
2021/08/22 09:14:29;;;;;;;6.20;4.70;;;23.40;74.20;;;;;;5055195;28;20429;-76
2021/08/22 09:17:33;;;;;;;6.37;5.07;;;23.50;73.60;;;;;;5054552;28;20426;-76
2021/08/22 09:20:50;;;;;;;5.00;4.27;;;23.60;73.40;;;;;;5054103;28;20967;-75
2021/08/22 09:23:58;;;;;;;7.50;4.93;;;23.80;73.40;;;;;;5028940;28;20457;-76
2021/08/22 09:27:02;;;;;;;5.60;4.87;;;24.20;73.40;;;;;;5054299;28;20433;-76
2021/08/22 09:30:14;;;;;;;5.00;4.60;;;24.60;70.70;;;;;;5054220;28;20828;-76
2021/08/22 09:33:18;;;;;;;6.10;5.50;;;24.90;68.40;;;;;;5054256;28;20442;-76
2021/08/22 09:36:22;;;;;;;5.20;4.40;;;25.10;67.60;;;;;;5024358;28;20453;-76
2021/08/22 09:39:26;;;;;;;4.37;4.07;;;24.90;65.90;;;;;;5054111;28;20527;-75
2021/08/22 09:42:32;;;;;;;4.40;4.00;;;24.50;64.20;;;;;;5054336;28;20448;-75
2021/08/22 09:45:35;;;;;;;4.97;4.43;;;24.30;66.10;;;;;;5054070;28;20448;-75
2021/08/22 09:48:40;;;;;;;6.50;4.10;;;24.20;65.70;;;;;;5053863;28;20477;-75
2021/08/22 09:51:54;;;;;;;6.53;4.87;;;24.40;68.60;;;;;;5053687;28;20445;-76
2021/08/22 09:54:58;;;;;;;6.97;4.00;;;24.80;66.90;;;;;;5053608;28;20972;-76
2021/08/22 09:58:19;;;;;;;4.43;3.27;;;24.90;62.50;;;;;;5053619;28;20927;-76
2021/08/22 10:01:31;;;;;;;6.60;3.03;;;25.40;63.90;;;;;;5053510;28;20959;-76
2021/08/22 10:04:22;;;;;;;7.23;3.53;;;25.80;59.50;;;;;;5053751;28;20919;-76
2021/08/22 10:07:11;;;;;;;5.43;2.93;;;26.00;58.10;;;;;;5053735;28;20480;-76
2021/08/22 10:09:44;;;;;;;4.20;3.60;;;26.40;57.50;;;;;;5053453;28;20450;-76
2021/08/22 10:12:10;;;;;;;3.60;3.10;;;26.80;57.00;;;;;;5053706;28;20429;-76
2021/08/22 10:14:38;;;;;;;6.43;3.93;;;27.30;54.40;;;;;;5053590;28;20445;-76
2021/08/22 10:17:06;;;;;;;4.07;3.40;;;27.70;54.00;;;;;;5053198;28;20952;-76
2021/08/22 10:19:33;;;;;;;11.67;4.10;;;27.50;51.80;;;;;;5053429;28;20838;-76
2021/08/22 10:22:13;;;;;;;5.50;4.07;;;27.40;53.30;;;;;;5053511;28;20442;-76
2021/08/22 10:24:52;;;;;;;6.00;4.20;;;27.10;54.30;;;;;;5053596;28;20429;-76
2021/08/22 10:27:45;;;;;;;4.70;3.83;;;26.80;54.00;;;;;;5053442;28;20795;-76
2021/08/22 10:30:16;;;;;;;3.90;3.50;;;26.50;54.80;;;;;;5053395;28;20830;-76
2021/08/22 10:33:09;;;;;;;7.60;4.20;;;26.10;55.00;;;;;;5052723;28;20429;-76
2021/08/22 10:35:35;;;;;;;5.13;4.17;;;26.00;57.00;;;;;;5053409;28;20517;-76
2021/08/22 10:38:38;;;;;;;6.00;4.23;;;26.20;56.10;;;;;;5053234;28;20449;-75
2021/08/22 10:41:26;;;;;;;5.53;4.03;;;26.70;55.50;;;;;;5053400;28;20426;-76
2021/08/22 10:43:53;;;;;;;4.57;4.17;;;27.30;54.00;;;;;;5052847;28;20441;-76
2021/08/22 10:46:46;;;;;;;6.90;3.83;;;27.50;52.10;;;;;;5053311;28;20452;-76
2021/08/22 10:49:12;;;;;;;7.07;4.00;;;27.50;51.10;;;;;;5053132;28;20858;-76
2021/08/22 10:51:39;;;;;;;6.70;4.07;;;27.60;51.30;;;;;;5053201;28;20448;-76
2021/08/22 10:54:22;;;;;;;5.23;3.60;;;27.50;50.80;;;;;;5053160;28;20446;-76
2021/08/22 10:56:50;;;;;;;5.70;3.57;;;27.60;50.40;;;;;;5053207;28;20432;-76
2021/08/22 10:59:16;;;;;;;5.10;3.73;;;27.30;49.90;;;;;;5052856;28;20481;-76
2021/08/22 11:01:44;;;;;;;5.10;3.60;;;27.10;51.40;;;;;;5053128;28;20426;-76
2021/08/22 11:04:13;;;;;;;6.80;3.83;;;27.20;51.20;;;;;;5053064;28;20456;-76
2021/08/22 11:06:54;;;;;;;4.40;3.70;;;27.50;52.90;;;;;;5053027;28;20498;-76
2021/08/22 11:09:38;;;;;;;5.30;3.30;;;27.60;50.50;;;;;;5052689;28;21014;-76
2021/08/22 11:12:25;;;;;;;4.30;3.90;;;27.60;51.40;;;;;;5053020;28;20426;-76
2021/08/22 11:14:53;;;;;;;6.77;4.23;;;27.40;51.10;;;;;;5053015;28;20445;-76
2021/08/22 11:17:19;;;;;;;4.83;3.63;;;27.30;50.90;;;;;;5052935;28;20440;-76
2021/08/22 11:19:46;;;;;;;5.70;4.03;;;27.20;50.40;;;;;;5052871;28;20536;-76
2021/08/22 11:22:24;;;;;;;5.47;4.03;;;27.40;51.30;;;;;;5053151;28;20536;-76
2021/08/22 11:24:51;;;;;;;7.33;3.90;;;27.70;49.80;;;;;;5053090;28;20448;-76
2021/08/22 11:27:21;;;;;;;6.80;3.67;;;27.50;49.60;;;;;;5052782;28;20477;-76
2021/08/22 11:29:56;;;;;;;5.93;3.70;;;27.60;50.20;;;;;;5052756;28;20465;-76
2021/08/22 11:32:23;;;;;;;4.47;4.07;;;27.40;49.30;;;;;;5052828;28;20445;-76
2021/08/22 11:34:50;;;;;;;6.23;3.53;;;27.60;50.60;;;;;;5052824;28;20472;-76
2021/08/22 11:37:18;;;;;;;5.87;3.90;;;28.10;48.80;;;;;;5052811;28;20467;-76
2021/08/22 11:39:44;;;;;;;9.13;3.70;;;28.30;47.80;;;;;;5052713;28;20472;-76
2021/08/22 11:42:12;;;;;;;6.13;3.63;;;28.10;47.70;;;;;;5052798;28;20449;-76
2021/08/22 11:44:40;;;;;;;7.27;3.80;;;27.50;49.10;;;;;;5054206;28;20445;-76
2021/08/22 11:47:07;;;;;;;5.00;2.90;;;26.90;50.20;;;;;;5056276;28;20811;-76
2021/08/22 11:49:34;;;;;;;4.20;3.80;;;26.60;51.20;;;;;;5056207;28;20468;-76
2021/08/22 11:52:01;;;;;;;4.10;3.40;;;26.90;53.60;;;;;;5055955;28;20437;-76
2021/08/22 11:54:32;;;;;;;4.53;3.03;;;27.40;49.90;;;;;;5055865;28;20442;-76
2021/08/22 11:57:17;;;;;;;5.80;3.97;;;28.10;50.40;;;;;;5056209;28;20434;-77
2021/08/22 11:59:57;;;;;;;8.67;3.40;;;28.90;47.00;;;;;;5055852;28;20501;-76
2021/08/22 12:02:25;;;;;;;4.83;3.10;;;29.20;46.20;;;;;;5056066;28;20457;-76
2021/08/22 12:05:13;;;;;;;4.23;2.73;;;29.60;44.00;;;;;;5056006;28;20940;-76
2021/08/22 12:07:40;;;;;;;4.30;3.33;;;30.10;42.00;;;;;;5055889;28;20462;-76
2021/08/22 12:10:08;;;;;;;4.20;2.97;;;30.50;43.20;;;;;;5055772;28;20470;-76
2021/08/22 12:12:39;;;;;;;4.17;2.50;;;31.50;41.80;;;;;;5056108;28;20456;-76
2021/08/22 12:15:10;;;;;;;4.47;3.23;;;31.90;40.00;;;;;;5055807;28;20900;-76
2021/08/22 12:17:37;;;;;;;5.53;3.13;;;31.60;40.40;;;;;;5055708;28;20448;-77
2021/08/22 12:20:18;;;;;;;5.40;3.20;;;31.00;41.20;;;;;;5055613;28;20473;-76
2021/08/22 12:23:06;;;;;;;5.13;3.20;;;31.00;43.20;;;;;;5055655;28;20454;-76
2021/08/22 12:25:34;;;;;;;6.20;3.73;;;31.30;42.30;;;;;;5055545;28;20452;-76
2021/08/22 12:28:30;;;;;;;6.50;3.40;;;31.80;40.80;;;;;;5055377;28;20547;-76
2021/08/22 12:31:07;;;;;;;6.03;2.77;;;32.20;40.40;;;;;;5055532;28;20433;-76
2021/08/22 12:33:35;;;;;;;9.00;3.27;;;32.20;39.00;;;;;;5055488;28;20476;-76
2021/08/22 12:36:07;;;;;;;6.00;2.83;;;32.60;38.10;;;;;;5055366;28;20819;-76
2021/08/22 12:38:36;;;;;;;9.43;3.20;;;33.40;37.10;;;;;;5054963;28;20828;-76
2021/08/22 12:41:24;;;;;;;5.10;2.57;;;33.80;36.60;;;;;;5055354;28;20807;-76
2021/08/22 12:43:51;;;;;;;4.30;1.93;;;33.80;35.70;;;;;;5055554;28;20421;-77
2021/08/22 12:46:22;;;;;;;2.83;1.50;;;34.00;35.00;;;;;;5054960;28;20448;-77
2021/08/22 12:48:49;;;;;;;2.40;1.03;;;34.00;36.70;;;;;;5054920;28;20488;-77
2021/08/22 12:51:15;;;;;;;1.20;1.10;;;33.80;35.00;;;;;;5054970;28;20954;-77
2021/08/22 12:53:42;;;;;;;2.73;1.00;;;33.90;35.90;;;;;;5055043;28;20457;-77
2021/08/22 12:56:09;;;;;;;2.10;1.10;;;34.00;36.80;;;;;;5054398;28;20445;-77
2021/08/22 12:58:35;;;;;;;1.47;1.13;;;34.50;35.90;;;;;;5055313;28;20464;-78